sensor_id;sensor_type;location;lat;lon;timestamp;pressure;altitude;pressure_sealevel;temperature
75811;BMP280;64449;50.016;19.954;2023-02-03T00:02:03;99203.55;;;4.03
75811;BMP280;64449;50.016;19.954;2023-02-03T00:04:29;99200.54;;;4.01
75811;BMP280;64449;50.016;19.954;2023-02-03T00:06:54;99198.02;;;4.00
75811;BMP280;64449;50.016;19.954;2023-02-03T00:09:20;99198.09;;;4.01
75811;BMP280;64449;50.016;19.954;2023-02-03T00:11:46;99198.75;;;4.03
75811;BMP280;64449;50.016;19.954;2023-02-03T00:14:11;99200.58;;;4.04
75811;BMP280;64449;50.016;19.954;2023-02-03T00:16:36;99201.98;;;4.03
75811;BMP280;64449;50.016;19.954;2023-02-03T00:19:02;99198.80;;;4.03
75811;BMP280;64449;50.016;19.954;2023-02-03T00:21:28;99200.59;;;4.02
75811;BMP280;64449;50.016;19.954;2023-02-03T00:23:53;99201.13;;;4.03
75811;BMP280;64449;50.016;19.954;2023-02-03T00:26:18;99206.48;;;4.02
75811;BMP280;64449;50.016;19.954;2023-02-03T00:28:44;99214.73;;;4.01
75811;BMP280;64449;50.016;19.954;2023-02-03T00:31:21;99220.33;;;3.99
75811;BMP280;64449;50.016;19.954;2023-02-03T00:33:52;99221.14;;;3.97
75811;BMP280;64449;50.016;19.954;2023-02-03T00:36:17;99223.38;;;3.96
75811;BMP280;64449;50.016;19.954;2023-02-03T00:38:43;99225.21;;;3.95
75811;BMP280;64449;50.016;19.954;2023-02-03T00:41:08;99227.93;;;3.93
75811;BMP280;64449;50.016;19.954;2023-02-03T00:43:33;99235.20;;;3.90
75811;BMP280;64449;50.016;19.954;2023-02-03T00:45:59;99238.09;;;3.87
75811;BMP280;64449;50.016;19.954;2023-02-03T00:48:24;99242.04;;;3.85
75811;BMP280;64449;50.016;19.954;2023-02-03T00:50:49;99244.73;;;3.82
75811;BMP280;64449;50.016;19.954;2023-02-03T00:53:15;99240.92;;;3.82
75811;BMP280;64449;50.016;19.954;2023-02-03T00:55:41;99238.86;;;3.83
75811;BMP280;64449;50.016;19.954;2023-02-03T00:58:07;99238.38;;;3.87
75811;BMP280;64449;50.016;19.954;2023-02-03T01:00:32;99235.92;;;3.88
75811;BMP280;64449;50.016;19.954;2023-02-03T01:02:58;99242.88;;;3.91
75811;BMP280;64449;50.016;19.954;2023-02-03T01:05:23;99246.80;;;3.94
75811;BMP280;64449;50.016;19.954;2023-02-03T01:07:48;99248.79;;;3.99
75811;BMP280;64449;50.016;19.954;2023-02-03T01:10:14;99244.58;;;4.02
75811;BMP280;64449;50.016;19.954;2023-02-03T01:12:39;99250.36;;;4.05
75811;BMP280;64449;50.016;19.954;2023-02-03T01:15:05;99252.55;;;4.06
75811;BMP280;64449;50.016;19.954;2023-02-03T01:17:30;99254.99;;;4.05
75811;BMP280;64449;50.016;19.954;2023-02-03T01:19:56;99251.70;;;4.04
75811;BMP280;64449;50.016;19.954;2023-02-03T01:22:21;99255.91;;;4.01
75811;BMP280;64449;50.016;19.954;2023-02-03T01:24:46;99255.60;;;3.98
75811;BMP280;64449;50.016;19.954;2023-02-03T01:27:12;99258.60;;;3.94
75811;BMP280;64449;50.016;19.954;2023-02-03T01:29:37;99257.58;;;3.90
75811;BMP280;64449;50.016;19.954;2023-02-03T01:32:02;99258.79;;;3.86
75811;BMP280;64449;50.016;19.954;2023-02-03T01:34:28;99259.46;;;3.82
75811;BMP280;64449;50.016;19.954;2023-02-03T01:36:54;99255.95;;;3.77
75811;BMP280;64449;50.016;19.954;2023-02-03T01:39:19;99255.91;;;3.72
75811;BMP280;64449;50.016;19.954;2023-02-03T01:41:45;99257.58;;;3.70
75811;BMP280;64449;50.016;19.954;2023-02-03T01:47:11;99259.02;;;3.64
75811;BMP280;64449;50.016;19.954;2023-02-03T01:49:39;99253.25;;;3.62
75811;BMP280;64449;50.016;19.954;2023-02-03T01:52:06;99248.95;;;3.62
75811;BMP280;64449;50.016;19.954;2023-02-03T01:54:36;99245.25;;;3.63
75811;BMP280;64449;50.016;19.954;2023-02-03T01:57:12;99247.02;;;3.65
75811;BMP280;64449;50.016;19.954;2023-02-03T01:59:40;99247.30;;;3.67
75811;BMP280;64449;50.016;19.954;2023-02-03T02:02:06;99249.59;;;3.71
75811;BMP280;64449;50.016;19.954;2023-02-03T02:04:57;99248.14;;;3.75
75811;BMP280;64449;50.016;19.954;2023-02-03T02:07:26;99245.38;;;3.79
75811;BMP280;64449;50.016;19.954;2023-02-03T02:09:52;99239.31;;;3.82
75811;BMP280;64449;50.016;19.954;2023-02-03T02:12:18;99233.66;;;3.82
75811;BMP280;64449;50.016;19.954;2023-02-03T02:14:44;99230.33;;;3.83
75811;BMP280;64449;50.016;19.954;2023-02-03T02:31:32;99227.73;;;3.91
75811;BMP280;64449;50.016;19.954;2023-02-03T02:37:07;99229.69;;;3.91
75811;BMP280;64449;50.016;19.954;2023-02-03T02:39:42;99230.64;;;3.91
75811;BMP280;64449;50.016;19.954;2023-02-03T02:42:16;99232.76;;;3.89
75811;BMP280;64449;50.016;19.954;2023-02-03T02:44:48;99232.39;;;3.84
75811;BMP280;64449;50.016;19.954;2023-02-03T02:47:20;99236.41;;;3.83
75811;BMP280;64449;50.016;19.954;2023-02-03T02:52:19;99246.00;;;3.81
75811;BMP280;64449;50.016;19.954;2023-02-03T02:54:50;99244.25;;;3.81
75811;BMP280;64449;50.016;19.954;2023-02-03T02:57:17;99236.02;;;3.80
75811;BMP280;64449;50.016;19.954;2023-02-03T02:59:45;99229.67;;;3.79
75811;BMP280;64449;50.016;19.954;2023-02-03T03:02:11;99222.84;;;3.75
75811;BMP280;64449;50.016;19.954;2023-02-03T03:04:37;99220.00;;;3.73
75811;BMP280;64449;50.016;19.954;2023-02-03T03:07:09;99220.80;;;3.71
75811;BMP280;64449;50.016;19.954;2023-02-03T03:09:46;99212.83;;;3.66
75811;BMP280;64449;50.016;19.954;2023-02-03T03:12:21;99209.77;;;3.63
75811;BMP280;64449;50.016;19.954;2023-02-03T03:14:53;99203.08;;;3.59
75811;BMP280;64449;50.016;19.954;2023-02-03T03:17:40;99200.54;;;3.54
75811;BMP280;64449;50.016;19.954;2023-02-03T03:20:16;99188.37;;;3.48
75811;BMP280;64449;50.016;19.954;2023-02-03T03:22:47;99178.06;;;3.44
75811;BMP280;64449;50.016;19.954;2023-02-03T03:25:18;99177.21;;;3.43
75811;BMP280;64449;50.016;19.954;2023-02-03T03:27:51;99174.60;;;3.40
75811;BMP280;64449;50.016;19.954;2023-02-03T03:30:26;99176.23;;;3.36
75811;BMP280;64449;50.016;19.954;2023-02-03T03:32:53;99184.60;;;3.32
75811;BMP280;64449;50.016;19.954;2023-02-03T03:35:19;99195.10;;;3.27
75811;BMP280;64449;50.016;19.954;2023-02-03T03:38:08;99198.35;;;3.24
75811;BMP280;64449;50.016;19.954;2023-02-03T03:40:42;99206.85;;;3.22
75811;BMP280;64449;50.016;19.954;2023-02-03T03:43:18;99208.70;;;3.22
75811;BMP280;64449;50.016;19.954;2023-02-03T03:46:16;99210.72;;;3.21
75811;BMP280;64449;50.016;19.954;2023-02-03T03:49:04;99220.86;;;3.19
75811;BMP280;64449;50.016;19.954;2023-02-03T03:51:40;99220.77;;;3.17
75811;BMP280;64449;50.016;19.954;2023-02-03T03:54:10;99222.85;;;3.15
75811;BMP280;64449;50.016;19.954;2023-02-03T03:57:02;99223.15;;;3.14
75811;BMP280;64449;50.016;19.954;2023-02-03T03:59:34;99214.14;;;3.13
75811;BMP280;64449;50.016;19.954;2023-02-03T04:02:02;99208.44;;;3.11
75811;BMP280;64449;50.016;19.954;2023-02-03T04:04:30;99196.34;;;3.08
75811;BMP280;64449;50.016;19.954;2023-02-03T04:06:56;99187.02;;;3.04
75811;BMP280;64449;50.016;19.954;2023-02-03T04:09:22;99183.15;;;3.00
75811;BMP280;64449;50.016;19.954;2023-02-03T04:11:47;99176.77;;;2.96
75811;BMP280;64449;50.016;19.954;2023-02-03T04:14:25;99171.97;;;2.90
75811;BMP280;64449;50.016;19.954;2023-02-03T04:16:51;99168.27;;;2.84
75811;BMP280;64449;50.016;19.954;2023-02-03T04:19:16;99164.07;;;2.78
75811;BMP280;64449;50.016;19.954;2023-02-03T04:21:41;99161.59;;;2.72
75811;BMP280;64449;50.016;19.954;2023-02-03T04:24:07;99166.48;;;2.69
75811;BMP280;64449;50.016;19.954;2023-02-03T04:26:32;99163.04;;;2.66
75811;BMP280;64449;50.016;19.954;2023-02-03T04:28:58;99156.95;;;2.66
75811;BMP280;64449;50.016;19.954;2023-02-03T04:31:23;99162.14;;;2.64
75811;BMP280;64449;50.016;19.954;2023-02-03T04:33:48;99159.98;;;2.63
75811;BMP280;64449;50.016;19.954;2023-02-03T04:36:14;99165.61;;;2.60
75811;BMP280;64449;50.016;19.954;2023-02-03T04:38:39;99167.61;;;2.56
75811;BMP280;64449;50.016;19.954;2023-02-03T04:41:04;99169.98;;;2.53
75811;BMP280;64449;50.016;19.954;2023-02-03T04:43:30;99170.83;;;2.50
75811;BMP280;64449;50.016;19.954;2023-02-03T04:45:58;99168.90;;;2.46
75811;BMP280;64449;50.016;19.954;2023-02-03T04:48:24;99170.77;;;2.41
75811;BMP280;64449;50.016;19.954;2023-02-03T04:50:49;99167.59;;;2.39
75811;BMP280;64449;50.016;19.954;2023-02-03T04:53:15;99158.92;;;2.37
75811;BMP280;64449;50.016;19.954;2023-02-03T04:55:40;99153.77;;;2.33
75811;BMP280;64449;50.016;19.954;2023-02-03T04:58:05;99153.98;;;2.30
75811;BMP280;64449;50.016;19.954;2023-02-03T05:00:31;99146.02;;;2.29
75811;BMP280;64449;50.016;19.954;2023-02-03T05:02:56;99146.49;;;2.27
75811;BMP280;64449;50.016;19.954;2023-02-03T05:05:21;99145.44;;;2.23
75811;BMP280;64449;50.016;19.954;2023-02-03T05:07:47;99145.58;;;2.23
75811;BMP280;64449;50.016;19.954;2023-02-03T05:10:12;99145.63;;;2.22
75811;BMP280;64449;50.016;19.954;2023-02-03T05:12:37;99141.83;;;2.22
75811;BMP280;64449;50.016;19.954;2023-02-03T05:15:03;99143.25;;;2.22
75811;BMP280;64449;50.016;19.954;2023-02-03T05:17:28;99144.35;;;2.22
75811;BMP280;64449;50.016;19.954;2023-02-03T05:19:54;99144.62;;;2.22
75811;BMP280;64449;50.016;19.954;2023-02-03T05:22:19;99141.42;;;2.22
75811;BMP280;64449;50.016;19.954;2023-02-03T05:24:45;99137.74;;;2.22
75811;BMP280;64449;50.016;19.954;2023-02-03T05:27:10;99138.58;;;2.21
75811;BMP280;64449;50.016;19.954;2023-02-03T05:29:35;99138.36;;;2.20
75811;BMP280;64449;50.016;19.954;2023-02-03T05:32:01;99140.39;;;2.18
75811;BMP280;64449;50.016;19.954;2023-02-03T05:34:26;99130.18;;;2.16
75811;BMP280;64449;50.016;19.954;2023-02-03T05:36:52;99125.59;;;2.15
75811;BMP280;64449;50.016;19.954;2023-02-03T05:39:17;99119.84;;;2.14
75811;BMP280;64449;50.016;19.954;2023-02-03T05:41:42;99115.48;;;2.15
75811;BMP280;64449;50.016;19.954;2023-02-03T05:44:23;99112.12;;;2.14
75811;BMP280;64449;50.016;19.954;2023-02-03T05:46:49;99112.09;;;2.13
75811;BMP280;64449;50.016;19.954;2023-02-03T05:49:16;99114.57;;;2.13
75811;BMP280;64449;50.016;19.954;2023-02-03T05:51:41;99114.08;;;2.12
75811;BMP280;64449;50.016;19.954;2023-02-03T05:54:07;99110.96;;;2.12
75811;BMP280;64449;50.016;19.954;2023-02-03T05:56:32;99110.27;;;2.12
75811;BMP280;64449;50.016;19.954;2023-02-03T05:58:58;99106.55;;;2.09
75811;BMP280;64449;50.016;19.954;2023-02-03T06:01:23;99104.92;;;2.07
75811;BMP280;64449;50.016;19.954;2023-02-03T06:03:49;99100.71;;;2.06
75811;BMP280;64449;50.016;19.954;2023-02-03T06:06:15;99094.13;;;2.02
75811;BMP280;64449;50.016;19.954;2023-02-03T06:08:41;99094.05;;;2.00
75811;BMP280;64449;50.016;19.954;2023-02-03T06:11:07;99088.63;;;1.99
75811;BMP280;64449;50.016;19.954;2023-02-03T06:13:33;99087.36;;;1.99
75811;BMP280;64449;50.016;19.954;2023-02-03T06:15:58;99085.11;;;2.00
75811;BMP280;64449;50.016;19.954;2023-02-03T06:18:24;99082.11;;;2.01
75811;BMP280;64449;50.016;19.954;2023-02-03T06:20:49;99074.42;;;2.01
75811;BMP280;64449;50.016;19.954;2023-02-03T06:23:15;99065.25;;;2.03
75811;BMP280;64449;50.016;19.954;2023-02-03T06:25:43;99059.09;;;2.02
75811;BMP280;64449;50.016;19.954;2023-02-03T06:28:09;99053.58;;;2.02
75811;BMP280;64449;50.016;19.954;2023-02-03T06:30:34;99048.71;;;2.03
75811;BMP280;64449;50.016;19.954;2023-02-03T06:33:00;99051.08;;;2.03
75811;BMP280;64449;50.016;19.954;2023-02-03T06:35:25;99048.71;;;2.05
75811;BMP280;64449;50.016;19.954;2023-02-03T06:37:51;99037.23;;;2.07
75811;BMP280;64449;50.016;19.954;2023-02-03T06:40:16;99026.86;;;2.08
75811;BMP280;64449;50.016;19.954;2023-02-03T06:42:46;99024.92;;;2.09
75811;BMP280;64449;50.016;19.954;2023-02-03T06:45:11;99025.50;;;2.11
75811;BMP280;64449;50.016;19.954;2023-02-03T06:47:44;99030.39;;;2.12
75811;BMP280;64449;50.016;19.954;2023-02-03T06:50:12;99028.83;;;2.13
75811;BMP280;64449;50.016;19.954;2023-02-03T06:52:38;99020.07;;;2.14
75811;BMP280;64449;50.016;19.954;2023-02-03T06:55:04;99018.45;;;2.14
75811;BMP280;64449;50.016;19.954;2023-02-03T06:57:30;99012.17;;;2.15
75811;BMP280;64449;50.016;19.954;2023-02-03T06:59:56;99010.45;;;2.17
75811;BMP280;64449;50.016;19.954;2023-02-03T07:02:21;99011.55;;;2.19
75811;BMP280;64449;50.016;19.954;2023-02-03T07:04:46;99010.83;;;2.21
75811;BMP280;64449;50.016;19.954;2023-02-03T07:07:12;99016.52;;;2.22
75811;BMP280;64449;50.016;19.954;2023-02-03T07:09:39;99015.73;;;2.25
75811;BMP280;64449;50.016;19.954;2023-02-03T07:12:05;99015.14;;;2.25
75811;BMP280;64449;50.016;19.954;2023-02-03T07:14:30;99002.97;;;2.24
75811;BMP280;64449;50.016;19.954;2023-02-03T07:16:56;98999.20;;;2.25
75811;BMP280;64449;50.016;19.954;2023-02-03T07:19:21;98998.64;;;2.24
75811;BMP280;64449;50.016;19.954;2023-02-03T07:21:47;98993.16;;;2.25
75811;BMP280;64449;50.016;19.954;2023-02-03T07:24:12;98988.12;;;2.24
75811;BMP280;64449;50.016;19.954;2023-02-03T07:26:38;98983.35;;;2.24
75811;BMP280;64449;50.016;19.954;2023-02-03T07:29:03;98982.05;;;2.27
75811;BMP280;64449;50.016;19.954;2023-02-03T07:31:29;98977.96;;;2.30
75811;BMP280;64449;50.016;19.954;2023-02-03T07:33:55;98981.69;;;2.33
75811;BMP280;64449;50.016;19.954;2023-02-03T07:36:21;98974.10;;;2.35
75811;BMP280;64449;50.016;19.954;2023-02-03T07:38:46;98976.39;;;2.39
75811;BMP280;64449;50.016;19.954;2023-02-03T07:41:11;98978.84;;;2.44
75811;BMP280;64449;50.016;19.954;2023-02-03T07:43:37;98973.41;;;2.48
75811;BMP280;64449;50.016;19.954;2023-02-03T07:46:02;98968.41;;;2.53
75811;BMP280;64449;50.016;19.954;2023-02-03T07:48:28;98958.77;;;2.56
75811;BMP280;64449;50.016;19.954;2023-02-03T07:50:53;98953.77;;;2.57
75811;BMP280;64449;50.016;19.954;2023-02-03T07:53:19;98953.46;;;2.56
75811;BMP280;64449;50.016;19.954;2023-02-03T07:55:44;98948.23;;;2.57
75811;BMP280;64449;50.016;19.954;2023-02-03T07:58:10;98941.36;;;2.57
75811;BMP280;64449;50.016;19.954;2023-02-03T08:00:36;98935.89;;;2.58
75811;BMP280;64449;50.016;19.954;2023-02-03T08:03:02;98931.32;;;2.58
75811;BMP280;64449;50.016;19.954;2023-02-03T08:05:27;98920.14;;;2.58
75811;BMP280;64449;50.016;19.954;2023-02-03T08:07:54;98924.23;;;2.59
75811;BMP280;64449;50.016;19.954;2023-02-03T08:10:21;98915.91;;;2.60
75811;BMP280;64449;50.016;19.954;2023-02-03T08:12:47;98911.26;;;2.62
75811;BMP280;64449;50.016;19.954;2023-02-03T08:15:12;98910.15;;;2.64
75811;BMP280;64449;50.016;19.954;2023-02-03T08:17:38;98902.13;;;2.65
75811;BMP280;64449;50.016;19.954;2023-02-03T08:20:07;98904.67;;;2.66
75811;BMP280;64449;50.016;19.954;2023-02-03T08:22:32;98898.31;;;2.69
75811;BMP280;64449;50.016;19.954;2023-02-03T08:24:58;98891.84;;;2.73
75811;BMP280;64449;50.016;19.954;2023-02-03T08:27:23;98890.14;;;2.77
75811;BMP280;64449;50.016;19.954;2023-02-03T08:29:49;98888.40;;;2.80
75811;BMP280;64449;50.016;19.954;2023-02-03T08:32:18;98878.77;;;2.83
75811;BMP280;64449;50.016;19.954;2023-02-03T08:34:44;98868.36;;;2.84
75811;BMP280;64449;50.016;19.954;2023-02-03T08:37:11;98866.42;;;2.85
75811;BMP280;64449;50.016;19.954;2023-02-03T08:39:37;98863.27;;;2.85
75811;BMP280;64449;50.016;19.954;2023-02-03T08:42:03;98858.77;;;2.86
75811;BMP280;64449;50.016;19.954;2023-02-03T08:44:29;98857.33;;;2.88
75811;BMP280;64449;50.016;19.954;2023-02-03T08:46:55;98848.37;;;2.90
75811;BMP280;64449;50.016;19.954;2023-02-03T08:49:21;98844.64;;;2.91
75811;BMP280;64449;50.016;19.954;2023-02-03T08:51:46;98839.42;;;2.94
75811;BMP280;64449;50.016;19.954;2023-02-03T08:54:12;98832.97;;;2.98
75811;BMP280;64449;50.016;19.954;2023-02-03T08:56:39;98828.73;;;3.01
75811;BMP280;64449;50.016;19.954;2023-02-03T08:59:04;98825.11;;;3.03
75811;BMP280;64449;50.016;19.954;2023-02-03T09:01:29;98826.23;;;3.07
75811;BMP280;64449;50.016;19.954;2023-02-03T09:03:55;98816.29;;;3.10
75811;BMP280;64449;50.016;19.954;2023-02-03T09:06:21;98814.88;;;3.13
75811;BMP280;64449;50.016;19.954;2023-02-03T09:08:46;98814.39;;;3.16
75811;BMP280;64449;50.016;19.954;2023-02-03T09:11:14;98803.89;;;3.20
75811;BMP280;64449;50.016;19.954;2023-02-03T09:13:40;98809.83;;;3.24
75811;BMP280;64449;50.016;19.954;2023-02-03T09:16:09;98806.61;;;3.26
75811;BMP280;64449;50.016;19.954;2023-02-03T09:18:34;98803.94;;;3.29
75811;BMP280;64449;50.016;19.954;2023-02-03T09:21:01;98799.42;;;3.30
75811;BMP280;64449;50.016;19.954;2023-02-03T09:23:27;98802.77;;;3.34
75811;BMP280;64449;50.016;19.954;2023-02-03T09:25:52;98798.45;;;3.41
75811;BMP280;64449;50.016;19.954;2023-02-03T09:28:18;98795.96;;;3.50
75811;BMP280;64449;50.016;19.954;2023-02-03T09:30:43;98793.02;;;3.60
75811;BMP280;64449;50.016;19.954;2023-02-03T09:33:09;98794.80;;;3.70
75811;BMP280;64449;50.016;19.954;2023-02-03T09:35:34;98792.69;;;3.78
75811;BMP280;64449;50.016;19.954;2023-02-03T09:37:59;98789.24;;;3.87
75811;BMP280;64449;50.016;19.954;2023-02-03T09:40:29;98781.10;;;3.93
75811;BMP280;64449;50.016;19.954;2023-02-03T09:46:05;98773.14;;;4.04
75811;BMP280;64449;50.016;19.954;2023-02-03T09:48:37;98773.97;;;4.07
75811;BMP280;64449;50.016;19.954;2023-02-03T09:51:07;98766.72;;;4.06
75811;BMP280;64449;50.016;19.954;2023-02-03T09:53:49;98758.84;;;4.04
75811;BMP280;64449;50.016;19.954;2023-02-03T09:56:42;98755.14;;;4.03
75811;BMP280;64449;50.016;19.954;2023-02-03T09:59:14;98751.58;;;4.02
75811;BMP280;64449;50.016;19.954;2023-02-03T10:01:48;98749.05;;;3.99
75811;BMP280;64449;50.016;19.954;2023-02-03T10:09:43;98734.92;;;4.01
75811;BMP280;64449;50.016;19.954;2023-02-03T10:22:42;98694.52;;;4.09
75811;BMP280;64449;50.016;19.954;2023-02-03T10:28:18;98668.34;;;4.24
75811;BMP280;64449;50.016;19.954;2023-02-03T10:30:49;98661.38;;;4.29
75811;BMP280;64449;50.016;19.954;2023-02-03T10:33:17;98648.27;;;4.30
75811;BMP280;64449;50.016;19.954;2023-02-03T10:35:54;98639.77;;;4.30
75811;BMP280;64449;50.016;19.954;2023-02-03T10:40:55;98629.89;;;4.26
75811;BMP280;64449;50.016;19.954;2023-02-03T10:43:21;98621.25;;;4.24
75811;BMP280;64449;50.016;19.954;2023-02-03T10:46:05;98607.39;;;4.23
75811;BMP280;64449;50.016;19.954;2023-02-03T10:48:30;98595.04;;;4.23
75811;BMP280;64449;50.016;19.954;2023-02-03T10:50:56;98591.42;;;4.24
75811;BMP280;64449;50.016;19.954;2023-02-03T10:53:25;98582.57;;;4.25
75811;BMP280;64449;50.016;19.954;2023-02-03T10:56:08;98576.05;;;4.27
75811;BMP280;64449;50.016;19.954;2023-02-03T10:58:37;98559.41;;;4.27
75811;BMP280;64449;50.016;19.954;2023-02-03T11:01:10;98553.52;;;4.28
75811;BMP280;64449;50.016;19.954;2023-02-03T11:03:37;98548.81;;;4.29
75811;BMP280;64449;50.016;19.954;2023-02-03T11:06:09;98545.45;;;4.33
75811;BMP280;64449;50.016;19.954;2023-02-03T11:08:37;98532.02;;;4.32
75811;BMP280;64449;50.016;19.954;2023-02-03T11:11:08;98527.19;;;4.26
75811;BMP280;64449;50.016;19.954;2023-02-03T11:13:35;98517.17;;;4.21
75811;BMP280;64449;50.016;19.954;2023-02-03T11:21:31;98480.45;;;4.13
75811;BMP280;64449;50.016;19.954;2023-02-03T11:24:01;98478.94;;;4.13
75811;BMP280;64449;50.016;19.954;2023-02-03T11:26:31;98467.94;;;4.11
75811;BMP280;64449;50.016;19.954;2023-02-03T11:29:00;98458.39;;;4.07
75811;BMP280;64449;50.016;19.954;2023-02-03T11:31:29;98444.71;;;4.04
75811;BMP280;64449;50.016;19.954;2023-02-03T11:33:57;98434.27;;;3.98
75811;BMP280;64449;50.016;19.954;2023-02-03T11:36:26;98433.33;;;3.93
75811;BMP280;64449;50.016;19.954;2023-02-03T11:39:07;98428.52;;;3.90
75811;BMP280;64449;50.016;19.954;2023-02-03T11:41:37;98412.45;;;3.86
75811;BMP280;64449;50.016;19.954;2023-02-03T11:44:24;98401.71;;;3.84
75811;BMP280;64449;50.016;19.954;2023-02-03T11:46:57;98394.20;;;3.81
75811;BMP280;64449;50.016;19.954;2023-02-03T11:52:03;98377.83;;;3.75
75811;BMP280;64449;50.016;19.954;2023-02-03T11:54:49;98364.63;;;3.71
75811;BMP280;64449;50.016;19.954;2023-02-03T12:00:47;98341.88;;;3.66
75811;BMP280;64449;50.016;19.954;2023-02-03T12:09:00;98306.46;;;3.65
75811;BMP280;64449;50.016;19.954;2023-02-03T12:11:58;98294.72;;;3.65
75811;BMP280;64449;50.016;19.954;2023-02-03T12:14:49;98283.83;;;3.66
75811;BMP280;64449;50.016;19.954;2023-02-03T12:17:31;98272.55;;;3.68
75811;BMP280;64449;50.016;19.954;2023-02-03T12:20:16;98267.60;;;3.68
75811;BMP280;64449;50.016;19.954;2023-02-03T12:22:53;98257.02;;;3.64
75811;BMP280;64449;50.016;19.954;2023-02-03T12:25:57;98241.02;;;3.66
75811;BMP280;64449;50.016;19.954;2023-02-03T12:30:55;98227.03;;;3.74
75811;BMP280;64449;50.016;19.954;2023-02-03T12:33:45;98215.74;;;3.74
75811;BMP280;64449;50.016;19.954;2023-02-03T12:36:19;98211.35;;;3.76
75811;BMP280;64449;50.016;19.954;2023-02-03T12:41:43;98202.16;;;3.77
75811;BMP280;64449;50.016;19.954;2023-02-03T12:44:18;98190.42;;;3.74
75811;BMP280;64449;50.016;19.954;2023-02-03T12:46:56;98186.05;;;3.72
75811;BMP280;64449;50.016;19.954;2023-02-03T12:49:41;98174.91;;;3.68
75811;BMP280;64449;50.016;19.954;2023-02-03T12:52:19;98167.38;;;3.67
75811;BMP280;64449;50.016;19.954;2023-02-03T12:55:14;98158.27;;;3.68
75811;BMP280;64449;50.016;19.954;2023-02-03T12:57:54;98147.84;;;3.69
75811;BMP280;64449;50.016;19.954;2023-02-03T13:01:04;98138.55;;;3.70
75811;BMP280;64449;50.016;19.954;2023-02-03T13:03:40;98130.86;;;3.70
75811;BMP280;64449;50.016;19.954;2023-02-03T13:10:02;98109.63;;;3.72
75811;BMP280;64449;50.016;19.954;2023-02-03T13:12:31;98103.92;;;3.76
75811;BMP280;64449;50.016;19.954;2023-02-03T13:17:46;98090.27;;;3.81
75811;BMP280;64449;50.016;19.954;2023-02-03T13:20:19;98084.14;;;3.83
75811;BMP280;64449;50.016;19.954;2023-02-03T13:22:45;98079.13;;;3.85
75811;BMP280;64449;50.016;19.954;2023-02-03T13:30:45;98054.14;;;3.88
75811;BMP280;64449;50.016;19.954;2023-02-03T13:38:38;98022.41;;;3.91
75811;BMP280;64449;50.016;19.954;2023-02-03T13:41:19;98018.88;;;3.92
75811;BMP280;64449;50.016;19.954;2023-02-03T13:43:49;98007.83;;;3.92
75811;BMP280;64449;50.016;19.954;2023-02-03T13:46:27;98001.20;;;3.91
75811;BMP280;64449;50.016;19.954;2023-02-03T13:48:55;97995.09;;;3.91
75811;BMP280;64449;50.016;19.954;2023-02-03T13:51:23;97987.62;;;3.91
75811;BMP280;64449;50.016;19.954;2023-02-03T13:53:51;97982.70;;;3.90
75811;BMP280;64449;50.016;19.954;2023-02-03T13:56:23;97975.89;;;3.88
75811;BMP280;64449;50.016;19.954;2023-02-03T14:01:29;97968.36;;;3.87
75811;BMP280;64449;50.016;19.954;2023-02-03T14:03:56;97958.45;;;3.87
75811;BMP280;64449;50.016;19.954;2023-02-03T14:12:20;97934.92;;;3.86
75811;BMP280;64449;50.016;19.954;2023-02-03T14:20:03;97904.76;;;3.81
75811;BMP280;64449;50.016;19.954;2023-02-03T14:22:32;97895.40;;;3.78
75811;BMP280;64449;50.016;19.954;2023-02-03T14:25:04;97884.75;;;3.75
75811;BMP280;64449;50.016;19.954;2023-02-03T14:27:30;97879.30;;;3.74
75811;BMP280;64449;50.016;19.954;2023-02-03T14:30:06;97876.13;;;3.73
75811;BMP280;64449;50.016;19.954;2023-02-03T14:32:48;97861.77;;;3.71
75811;BMP280;64449;50.016;19.954;2023-02-03T14:35:16;97856.43;;;3.70
75811;BMP280;64449;50.016;19.954;2023-02-03T14:37:50;97858.18;;;3.70
75811;BMP280;64449;50.016;19.954;2023-02-03T14:59:23;97816.36;;;3.56
75811;BMP280;64449;50.016;19.954;2023-02-03T15:06:44;97806.77;;;3.51
75811;BMP280;64449;50.016;19.954;2023-02-03T15:09:31;97798.72;;;3.50
75811;BMP280;64449;50.016;19.954;2023-02-03T15:11:58;97798.73;;;3.49
75811;BMP280;64449;50.016;19.954;2023-02-03T15:14:25;97793.55;;;3.49
75811;BMP280;64449;50.016;19.954;2023-02-03T15:16:56;97796.29;;;3.48
75811;BMP280;64449;50.016;19.954;2023-02-03T15:19:24;97796.36;;;3.48
75811;BMP280;64449;50.016;19.954;2023-02-03T15:21:49;97795.77;;;3.50
75811;BMP280;64449;50.016;19.954;2023-02-03T15:24:16;97796.42;;;3.51
75811;BMP280;64449;50.016;19.954;2023-02-03T15:26:54;97799.37;;;3.51
75811;BMP280;64449;50.016;19.954;2023-02-03T15:29:29;97799.92;;;3.52
75811;BMP280;64449;50.016;19.954;2023-02-03T15:32:11;97800.73;;;3.53
75811;BMP280;64449;50.016;19.954;2023-02-03T15:34:42;97803.72;;;3.55
75811;BMP280;64449;50.016;19.954;2023-02-03T15:37:18;97799.14;;;3.57
75811;BMP280;64449;50.016;19.954;2023-02-03T15:39:59;97806.13;;;3.57
75811;BMP280;64449;50.016;19.954;2023-02-03T15:47:59;97808.75;;;3.59
75811;BMP280;64449;50.016;19.954;2023-02-03T15:52:58;97808.04;;;3.61
75811;BMP280;64449;50.016;19.954;2023-02-03T15:58:00;97796.27;;;3.65
75811;BMP280;64449;50.016;19.954;2023-02-03T16:00:33;97787.58;;;3.67
75811;BMP280;64449;50.016;19.954;2023-02-03T16:02:59;97780.02;;;3.69
75811;BMP280;64449;50.016;19.954;2023-02-03T16:05:29;97783.86;;;3.71
75811;BMP280;64449;50.016;19.954;2023-02-03T16:07:55;97770.15;;;3.73
75811;BMP280;64449;50.016;19.954;2023-02-03T16:10:29;97772.90;;;3.74
75811;BMP280;64449;50.016;19.954;2023-02-03T16:13:24;97779.77;;;3.76
75811;BMP280;64449;50.016;19.954;2023-02-03T16:16:20;97783.23;;;3.78
75811;BMP280;64449;50.016;19.954;2023-02-03T16:18:52;97779.48;;;3.84
75811;BMP280;64449;50.016;19.954;2023-02-03T16:21:30;97777.11;;;3.90
75811;BMP280;64449;50.016;19.954;2023-02-03T16:23:57;97772.70;;;3.96
75811;BMP280;64449;50.016;19.954;2023-02-03T16:26:24;97774.59;;;4.03
75811;BMP280;64449;50.016;19.954;2023-02-03T16:31:48;97778.32;;;4.16
75811;BMP280;64449;50.016;19.954;2023-02-03T16:34:33;97779.85;;;4.24
75811;BMP280;64449;50.016;19.954;2023-02-03T16:37:28;97783.83;;;4.30
75811;BMP280;64449;50.016;19.954;2023-02-03T16:40:16;97777.38;;;4.36
75811;BMP280;64449;50.016;19.954;2023-02-03T16:43:01;97773.30;;;4.43